createdAt,value
2023-03-06T00:01:40.969Z,100785.50
2023-03-06T00:04:11.634Z,100814.66
2023-03-06T00:06:42.347Z,100833.47
2023-03-06T00:09:12.152Z,100805.13
2023-03-06T00:11:42.326Z,100814.56
2023-03-06T00:14:15.071Z,100783.97
2023-03-06T00:16:46.597Z,100800.13
2023-03-06T00:19:17.057Z,100766.19
2023-03-06T00:21:50.241Z,100801.72
2023-03-06T00:24:20.429Z,100805.19
2023-03-06T00:26:51.138Z,100789.53
2023-03-06T00:29:21.496Z,100794.91
2023-03-06T00:31:53.038Z,100788.03
2023-03-06T00:34:23.988Z,100742.31
2023-03-06T00:36:55.578Z,100765.28
2023-03-06T00:39:26.208Z,100775.97
2023-03-06T00:41:58.642Z,100785.44
2023-03-06T00:44:29.584Z,100770.03
2023-03-06T00:47:02.481Z,100758.78
2023-03-06T00:49:33.513Z,100759.50
2023-03-06T00:52:06.897Z,100762.94
2023-03-06T00:54:39.830Z,100760.53
2023-03-06T00:57:09.899Z,100761.31
2023-03-06T00:59:39.817Z,100758.03
2023-03-06T01:02:11.510Z,100755.97
2023-03-06T01:04:41.734Z,100754.66
2023-03-06T01:07:12.109Z,100743.66
2023-03-06T01:09:42.215Z,100734.38
2023-03-06T01:12:12.570Z,100719.75
2023-03-06T01:14:44.947Z,100735.22
2023-03-06T01:17:16.559Z,100735.88
2023-03-06T01:19:47.112Z,100736.09
2023-03-06T01:22:17.309Z,100735.75
2023-03-06T01:24:46.551Z,100721.72
2023-03-06T01:27:17.351Z,100738.59
2023-03-06T01:29:47.154Z,100715.94
2023-03-06T01:32:21.712Z,100521.81
2023-03-06T01:34:52.233Z,100733.75
2023-03-06T01:37:22.869Z,100729.53
2023-03-06T01:39:53.384Z,100732.16
2023-03-06T01:42:24.076Z,100733.28
2023-03-06T01:45:01.706Z,100720.28
2023-03-06T01:47:33.736Z,100723.66
2023-03-06T01:50:06.108Z,100719.34
2023-03-06T01:52:41.625Z,100722.59
2023-03-06T01:55:16.509Z,100716.00
2023-03-06T01:57:52.622Z,100719.31
2023-03-06T02:00:26.383Z,100715.09
2023-03-06T02:03:02.042Z,100717.00
2023-03-06T02:05:32.186Z,100704.03
2023-03-06T02:08:07.016Z,100702.47
2023-03-06T02:10:37.424Z,100676.16
2023-03-06T02:13:08.011Z,100697.28
2023-03-06T02:15:38.685Z,100697.47
2023-03-06T02:18:10.449Z,100704.97
2023-03-06T02:20:50.238Z,100695.59
2023-03-06T02:23:29.213Z,100696.09
2023-03-06T02:26:02.997Z,100698.53
2023-03-06T02:28:33.516Z,100696.09
2023-03-06T02:31:03.887Z,100684.38
2023-03-06T02:33:33.817Z,100668.44
2023-03-06T02:36:06.529Z,100676.78
2023-03-06T02:38:42.374Z,100670.75
2023-03-06T02:41:14.710Z,100673.09
2023-03-06T02:43:49.429Z,100670.56
2023-03-06T02:46:19.980Z,100650.25
2023-03-06T02:48:50.248Z,100652.81
2023-03-06T02:51:20.803Z,100649.47
2023-03-06T02:53:50.324Z,100647.84
2023-03-06T02:56:22.141Z,100624.81
2023-03-06T02:58:52.239Z,100634.91
2023-03-06T03:01:22.437Z,100633.31
2023-03-06T03:03:52.125Z,100631.41
2023-03-06T03:06:23.909Z,100622.19
2023-03-06T03:08:55.272Z,100613.56
2023-03-06T03:11:28.704Z,100614.19
2023-03-06T03:13:58.707Z,100600.75
2023-03-06T03:16:30.072Z,100587.88
2023-03-06T03:19:01.722Z,100599.69
2023-03-06T03:21:31.099Z,100606.72
2023-03-06T03:24:01.490Z,100451.81
2023-03-06T03:26:32.134Z,100603.22
2023-03-06T03:29:10.888Z,100604.69
2023-03-06T03:31:42.689Z,100600.28
2023-03-06T03:34:12.510Z,100569.06
2023-03-06T03:36:43.688Z,100597.84
2023-03-06T03:39:14.832Z,100592.63
2023-03-06T03:41:46.574Z,100593.69
2023-03-06T03:44:16.593Z,100584.66
2023-03-06T03:46:50.159Z,100561.94
2023-03-06T03:49:23.884Z,100540.50
2023-03-06T03:51:54.126Z,100593.16
2023-03-06T03:54:25.503Z,100590.84
2023-03-06T03:56:59.536Z,100586.66
2023-03-06T03:59:33.836Z,100588.56
2023-03-06T04:02:17.193Z,100576.94
2023-03-06T04:04:55.403Z,100582.84
2023-03-06T04:07:25.310Z,100578.66
2023-03-06T04:09:55.418Z,100568.44
2023-03-06T04:12:26.331Z,100569.16
2023-03-06T04:14:55.731Z,100547.22
2023-03-06T04:17:25.930Z,100567.34
2023-03-06T04:19:59.870Z,100568.56
2023-03-06T04:22:29.605Z,100561.00
2023-03-06T04:24:59.486Z,100557.16
2023-03-06T04:27:30.396Z,100553.22
2023-03-06T04:30:00.611Z,100554.06
2023-03-06T04:32:30.259Z,100550.84
2023-03-06T04:34:59.766Z,100553.88
2023-03-06T04:37:32.636Z,100499.81
2023-03-06T04:40:03.167Z,100552.88
2023-03-06T04:42:33.635Z,100547.91
2023-03-06T04:45:03.466Z,100503.09
2023-03-06T04:47:32.781Z,100541.06
2023-03-06T04:50:02.606Z,100488.66
2023-03-06T04:52:32.138Z,100533.16
2023-03-06T04:55:04.390Z,100531.63
2023-03-06T04:57:35.618Z,100526.63
2023-03-06T05:00:08.658Z,100534.19
2023-03-06T05:02:38.143Z,100535.94
2023-03-06T05:05:08.320Z,100537.78
2023-03-06T05:07:37.992Z,100540.47
2023-03-06T05:10:13.504Z,100540.94
2023-03-06T05:12:44.747Z,100513.38
2023-03-06T05:15:21.629Z,100489.44
2023-03-06T05:17:51.277Z,100324.34
2023-03-06T05:20:20.575Z,100521.88
2023-03-06T05:22:49.880Z,100547.19
2023-03-06T05:25:19.415Z,100536.13
2023-03-06T05:27:50.117Z,100538.94
2023-03-06T05:30:21.276Z,100520.59
2023-03-06T05:32:50.801Z,100538.31
2023-03-06T05:35:22.804Z,100532.31
2023-03-06T05:37:52.341Z,100531.28
2023-03-06T05:40:21.998Z,100533.06
2023-03-06T05:42:52.966Z,100513.50
2023-03-06T05:45:24.524Z,100533.50
2023-03-06T05:47:54.118Z,100538.69
2023-03-06T05:50:23.520Z,100497.16
2023-03-06T05:52:52.702Z,100538.56
2023-03-06T05:55:24.505Z,100526.94
2023-03-06T05:57:55.969Z,100538.84
2023-03-06T06:00:26.124Z,100535.28
2023-03-06T06:02:55.315Z,100529.56
2023-03-06T06:05:24.570Z,100534.66
2023-03-06T06:07:53.879Z,100532.09
2023-03-06T06:10:22.845Z,100503.53
2023-03-06T06:12:52.233Z,100537.59
2023-03-06T06:15:23.866Z,100538.44
2023-03-06T06:17:54.172Z,100532.50
2023-03-06T06:20:23.635Z,100539.31
2023-03-06T06:22:52.837Z,100541.88
2023-03-06T06:25:24.586Z,100540.31
2023-03-06T06:27:56.118Z,100540.28
2023-03-06T06:30:26.881Z,100532.09
2023-03-06T06:32:56.058Z,100530.03
2023-03-06T06:35:27.941Z,100540.28
2023-03-06T06:37:57.030Z,100523.44
2023-03-06T06:40:27.718Z,100541.28
2023-03-06T06:42:56.883Z,100544.66
2023-03-06T06:45:29.827Z,100537.03
2023-03-06T06:47:59.328Z,100549.03
2023-03-06T06:50:28.430Z,100544.75
2023-03-06T06:52:57.937Z,100555.81
2023-03-06T06:55:27.240Z,100491.06
2023-03-06T06:57:56.339Z,100557.22
2023-03-06T07:00:25.841Z,100559.88
2023-03-06T07:02:56.507Z,100537.94
2023-03-06T07:05:25.422Z,100549.00
2023-03-06T07:07:54.313Z,100561.44
2023-03-06T07:10:23.792Z,100565.84
2023-03-06T07:12:53.208Z,100562.34
2023-03-06T07:15:27.226Z,100398.16
2023-03-06T07:17:57.592Z,100558.00
2023-03-06T07:20:26.763Z,100561.66
2023-03-06T07:22:56.266Z,100516.75
2023-03-06T07:25:25.420Z,100564.16
2023-03-06T07:27:54.984Z,100564.03
2023-03-06T07:30:26.388Z,100543.81
2023-03-06T07:32:58.760Z,100539.53
2023-03-06T07:35:28.473Z,100557.06
2023-03-06T07:37:59.962Z,100559.59
2023-03-06T07:40:29.549Z,100534.03
2023-03-06T07:43:16.889Z,100549.22
2023-03-06T07:45:57.846Z,100545.72
2023-03-06T07:48:30.664Z,100539.56
2023-03-06T07:51:01.659Z,100542.84
2023-03-06T07:53:33.141Z,100510.66
2023-03-06T07:56:04.919Z,100542.63
2023-03-06T07:58:34.239Z,100565.69
2023-03-06T08:01:05.909Z,100545.00
2023-03-06T08:03:37.566Z,100548.53
2023-03-06T08:06:08.392Z,100510.34
2023-03-06T08:08:37.803Z,100553.56
2023-03-06T08:11:07.091Z,100556.88
2023-03-06T08:13:36.932Z,100561.22
2023-03-06T08:16:06.640Z,100552.66
2023-03-06T08:18:39.644Z,100513.59
2023-03-06T08:21:11.405Z,100559.22
2023-03-06T08:23:41.348Z,100565.03
2023-03-06T08:26:13.266Z,100559.03
2023-03-06T08:28:43.047Z,100554.66
2023-03-06T08:31:21.278Z,100522.47
2023-03-06T08:33:54.427Z,100556.75
2023-03-06T08:36:24.178Z,100545.59
2023-03-06T08:38:53.929Z,100544.38
2023-03-06T08:41:23.428Z,100557.16
2023-03-06T08:43:52.777Z,100327.25
2023-03-06T08:46:23.910Z,100547.53
2023-03-06T08:48:57.448Z,100551.72
2023-03-06T08:51:28.039Z,100468.34
2023-03-06T08:53:58.003Z,100544.44
2023-03-06T08:56:28.966Z,100513.69
2023-03-06T08:58:59.508Z,100551.78
2023-03-06T09:01:30.879Z,100505.09
2023-03-06T09:04:03.931Z,100551.13
2023-03-06T09:06:36.075Z,100549.91
2023-03-06T09:09:08.055Z,100544.47
2023-03-06T09:11:37.710Z,100512.03
2023-03-06T09:14:07.405Z,100543.22
2023-03-06T09:16:36.616Z,100549.16
2023-03-06T09:19:07.183Z,100536.88
2023-03-06T09:21:36.894Z,100545.97
2023-03-06T09:24:06.568Z,100551.00
2023-03-06T09:26:45.700Z,100546.59
2023-03-06T09:29:17.650Z,100550.03
2023-03-06T09:31:47.099Z,100521.13
2023-03-06T09:34:17.850Z,100495.69
2023-03-06T09:36:56.616Z,100547.84
2023-03-06T09:39:27.555Z,100539.50
2023-03-06T09:41:58.487Z,100542.75
2023-03-06T09:44:30.630Z,100536.47
2023-03-06T09:47:24.683Z,100535.53
2023-03-06T09:50:08.733Z,100530.91
2023-03-06T09:52:46.127Z,100551.41
2023-03-06T09:55:20.497Z,100535.59
2023-03-06T09:57:55.917Z,100539.78
2023-03-06T10:00:32.225Z,100537.78
2023-03-06T10:03:16.707Z,100538.53
2023-03-06T10:05:51.164Z,100529.56
2023-03-06T10:08:30.451Z,100528.84
2023-03-06T10:11:02.623Z,100509.19
2023-03-06T10:13:39.464Z,100531.88
2023-03-06T10:16:29.381Z,100526.66
2023-03-06T10:19:04.959Z,100474.59
2023-03-06T10:21:55.676Z,100520.13
2023-03-06T10:24:35.820Z,100519.50
2023-03-06T10:27:16.524Z,100512.84
2023-03-06T10:30:02.697Z,100496.41
2023-03-06T10:32:49.199Z,100517.69
2023-03-06T10:35:22.987Z,100499.56
2023-03-06T10:37:59.268Z,100509.63
2023-03-06T10:40:36.646Z,100480.09
2023-03-06T10:43:12.465Z,100503.44
2023-03-06T10:45:49.889Z,100508.53
2023-03-06T10:48:22.146Z,100498.66
2023-03-06T10:50:51.898Z,100505.28
2023-03-06T10:53:26.378Z,100457.41
2023-03-06T10:55:59.334Z,100498.72
2023-03-06T10:58:32.635Z,100495.34
2023-03-06T11:01:08.286Z,100500.03
2023-03-06T11:03:38.289Z,100464.16
2023-03-06T11:06:13.032Z,100489.75
2023-03-06T11:08:45.325Z,100493.44
2023-03-06T11:11:18.508Z,100491.19
2023-03-06T11:13:58.945Z,100485.28
2023-03-06T11:16:30.712Z,100471.78
2023-03-06T11:19:04.012Z,100406.94
2023-03-06T11:21:34.978Z,100471.66
2023-03-06T11:24:16.752Z,100461.09
2023-03-06T11:26:52.210Z,100404.09
2023-03-06T11:29:42.552Z,100457.19
2023-03-06T11:32:16.347Z,100455.50
2023-03-06T11:34:56.018Z,100467.56
2023-03-06T11:37:44.419Z,100423.22
2023-03-06T11:40:21.961Z,100451.28
2023-03-06T11:42:57.310Z,100412.53
2023-03-06T11:45:31.927Z,100441.00
2023-03-06T11:48:05.438Z,100440.41
2023-03-06T11:50:36.264Z,100437.09
2023-03-06T11:53:08.418Z,100431.91
2023-03-06T11:55:52.549Z,100422.63
2023-03-06T11:58:59.988Z,100424.75
2023-03-06T12:01:34.967Z,100431.94
2023-03-06T12:04:46.195Z,100429.50
2023-03-06T12:07:30.214Z,100405.56
2023-03-06T12:10:09.226Z,100227.50
2023-03-06T12:16:29.709Z,100388.50
2023-03-06T12:19:14.611Z,100400.16
2023-03-06T12:21:56.364Z,100363.56
2023-03-06T12:24:38.613Z,100395.84
2023-03-06T12:27:19.165Z,100390.19
2023-03-06T12:30:11.606Z,100392.22
2023-03-06T12:32:50.308Z,100379.31
2023-03-06T12:35:40.732Z,100391.16
2023-03-06T12:38:31.263Z,100362.63
2023-03-06T12:41:15.776Z,100364.53
2023-03-06T12:44:09.402Z,100370.16
2023-03-06T12:46:44.850Z,100362.22
2023-03-06T12:49:32.001Z,100340.88
2023-03-06T12:52:03.781Z,100367.63
2023-03-06T12:54:37.877Z,100364.75
2023-03-06T12:57:09.692Z,100357.53
2023-03-06T12:59:42.867Z,100350.53
2023-03-06T13:02:45.652Z,100353.19
2023-03-06T13:05:52.157Z,100342.13
2023-03-06T13:08:53.125Z,100350.19
2023-03-06T13:11:38.529Z,100339.25
2023-03-06T13:14:25.403Z,100329.94
2023-03-06T13:16:55.338Z,100330.63
2023-03-06T13:19:27.068Z,100310.16
2023-03-06T13:22:14.499Z,100323.03
2023-03-06T13:24:45.579Z,100320.50
2023-03-06T13:27:46.380Z,100324.00
2023-03-06T13:30:24.597Z,100315.75
2023-03-06T13:32:55.129Z,100303.06
2023-03-06T13:35:55.185Z,100287.44
2023-03-06T13:39:06.091Z,100305.47
2023-03-06T13:41:54.646Z,100299.41
2023-03-06T13:44:51.107Z,100287.78
2023-03-06T13:48:02.870Z,100292.16
2023-03-06T13:50:37.334Z,100292.69
2023-03-06T13:53:31.548Z,100287.03
2023-03-06T13:56:15.142Z,100087.44
2023-03-06T13:58:54.074Z,100293.34
2023-03-06T14:01:37.623Z,100285.72
2023-03-06T14:04:34.468Z,100286.59
2023-03-06T14:07:12.267Z,100273.66
2023-03-06T14:09:46.136Z,100272.25
2023-03-06T14:12:24.984Z,100270.94
2023-03-06T14:14:57.471Z,100261.53
2023-03-06T14:17:32.219Z,100266.63
2023-03-06T14:20:07.070Z,100272.81
2023-03-06T14:22:37.088Z,100259.91
2023-03-06T14:25:16.272Z,100276.44
2023-03-06T14:27:49.759Z,100221.44
2023-03-06T14:30:23.153Z,100233.84
2023-03-06T14:32:56.666Z,100221.13
2023-03-06T14:35:30.881Z,100246.66
2023-03-06T14:38:03.562Z,100240.88
2023-03-06T14:40:36.030Z,100253.97
2023-03-06T14:43:16.906Z,100242.28
2023-03-06T14:45:51.634Z,100235.84
2023-03-06T14:48:21.281Z,100197.94
2023-03-06T14:50:53.626Z,100226.19
2023-03-06T14:53:26.480Z,100229.38
2023-03-06T14:55:59.082Z,100239.38
2023-03-06T14:58:33.233Z,100224.38
2023-03-06T15:01:06.159Z,100218.75
2023-03-06T15:03:43.342Z,100147.00
2023-03-06T15:06:18.910Z,100233.38
2023-03-06T15:08:52.606Z,100196.16
2023-03-06T15:11:21.886Z,100214.16
2023-03-06T15:14:04.156Z,100180.75
2023-03-06T15:16:33.427Z,100213.13
2023-03-06T15:19:06.709Z,100213.97
2023-03-06T15:21:38.745Z,100245.81
2023-03-06T15:24:31.465Z,100231.16
2023-03-06T15:27:05.044Z,100197.50
2023-03-06T15:29:39.755Z,100227.78
2023-03-06T15:32:17.752Z,100204.22
2023-03-06T15:34:47.129Z,100228.13
2023-03-06T15:37:28.107Z,100165.25
2023-03-06T15:40:09.533Z,100209.78
2023-03-06T15:42:39.171Z,100201.53
2023-03-06T15:45:19.582Z,100187.13
2023-03-06T15:47:51.318Z,100192.31
2023-03-06T15:50:22.502Z,100178.88
2023-03-06T15:52:52.153Z,100181.53
2023-03-06T15:55:23.630Z,100178.25
2023-03-06T15:57:55.556Z,100169.94
2023-03-06T16:00:28.804Z,100173.63
2023-03-06T16:02:59.176Z,100130.72
2023-03-06T16:05:30.031Z,100153.09
2023-03-06T16:08:00.061Z,100141.06
2023-03-06T16:10:31.302Z,100138.44
2023-03-06T16:13:04.184Z,100139.06
2023-03-06T16:15:40.216Z,100128.50
2023-03-06T16:18:13.531Z,100122.44
2023-03-06T16:20:46.550Z,100126.47
2023-03-06T16:23:16.608Z,100130.13
2023-03-06T16:25:50.110Z,100129.25
2023-03-06T16:28:20.115Z,100129.69
2023-03-06T16:30:51.241Z,100127.72
2023-03-06T16:33:21.501Z,100136.28
2023-03-06T16:35:51.360Z,100080.91
2023-03-06T16:38:21.370Z,100124.88
2023-03-06T16:40:50.936Z,100120.69
2023-03-06T16:43:20.408Z,100110.22
2023-03-06T16:45:50.992Z,100108.69
2023-03-06T16:48:21.056Z,100106.59
2023-03-06T16:50:53.370Z,100105.25
2023-03-06T16:53:23.088Z,100097.81
2023-03-06T16:55:53.112Z,100102.00
2023-03-06T16:58:23.244Z,100102.53
2023-03-06T17:00:54.615Z,100091.84
2023-03-06T17:03:26.623Z,100003.00
2023-03-06T17:05:56.403Z,100085.75
2023-03-06T17:08:26.350Z,100083.44
2023-03-06T17:10:55.853Z,100091.06
2023-03-06T17:13:26.583Z,100086.56
2023-03-06T17:15:59.462Z,99927.38
2023-03-06T17:18:29.741Z,100073.41
2023-03-06T17:21:02.012Z,100113.47
2023-03-06T17:23:32.226Z,100073.75
2023-03-06T17:26:07.280Z,100049.75
2023-03-06T17:28:38.676Z,100062.19
2023-03-06T17:31:16.005Z,100006.84
2023-03-06T17:33:46.150Z,100072.38
2023-03-06T17:36:16.503Z,100060.81
2023-03-06T17:38:46.353Z,100038.00
2023-03-06T17:41:16.546Z,100036.56
2023-03-06T17:43:46.171Z,100048.94
2023-03-06T17:46:18.360Z,100062.84
2023-03-06T17:48:48.665Z,100058.53
2023-03-06T17:51:18.552Z,100045.34
2023-03-06T17:53:47.918Z,100046.19
2023-03-06T17:56:17.598Z,100045.66
2023-03-06T17:58:47.680Z,100041.16
2023-03-06T18:01:22.399Z,100024.34
2023-03-06T18:03:53.014Z,100032.13
2023-03-06T18:06:22.832Z,99985.06
2023-03-06T18:08:56.075Z,100034.16
2023-03-06T18:11:25.988Z,100008.56
2023-03-06T18:13:56.275Z,99987.53
2023-03-06T18:16:28.064Z,100027.88
2023-03-06T18:18:58.653Z,99984.13
2023-03-06T18:21:27.810Z,100021.53
2023-03-06T18:23:59.047Z,100008.75
2023-03-06T18:26:30.293Z,100004.94
2023-03-06T18:29:04.177Z,100007.25
2023-03-06T18:31:36.927Z,100001.88
2023-03-06T18:34:11.338Z,100030.31
2023-03-06T18:36:44.357Z,99994.31
2023-03-06T18:39:17.572Z,99963.59
2023-03-06T18:41:47.334Z,99981.81
2023-03-06T18:44:19.268Z,99978.72
2023-03-06T18:46:52.176Z,99948.25
2023-03-06T18:49:22.341Z,99966.09
2023-03-06T18:51:52.221Z,99949.25
2023-03-06T18:54:21.894Z,99965.94
2023-03-06T18:56:51.761Z,99779.31
2023-03-06T18:59:21.795Z,99954.03
2023-03-06T19:02:00.802Z,99961.78
2023-03-06T19:04:31.193Z,99952.94
2023-03-06T19:07:01.514Z,99956.53
2023-03-06T19:09:31.212Z,99946.09
2023-03-06T19:12:03.238Z,99940.53
2023-03-06T19:14:32.576Z,99940.25
2023-03-06T19:17:05.717Z,99960.84
2023-03-06T19:19:34.777Z,99938.97
2023-03-06T19:22:04.346Z,99932.97
2023-03-06T19:24:34.224Z,99910.78
2023-03-06T19:27:03.995Z,99868.59
2023-03-06T19:29:33.747Z,99897.59
2023-03-06T19:32:03.475Z,99892.44
2023-03-06T19:34:33.911Z,99877.84
2023-03-06T19:37:03.422Z,99889.56
2023-03-06T19:39:32.811Z,99895.88
2023-03-06T19:42:04.774Z,99881.78
2023-03-06T19:44:33.953Z,99838.16
2023-03-06T19:47:03.682Z,99880.50
2023-03-06T19:49:34.687Z,99873.94
2023-03-06T19:52:04.335Z,99878.66
2023-03-06T19:54:34.001Z,99876.81
2023-03-06T19:57:03.693Z,99866.69
2023-03-06T19:59:33.690Z,99855.59
2023-03-06T20:02:03.635Z,99819.47
2023-03-06T20:04:35.537Z,99845.69
2023-03-06T20:07:06.133Z,99848.91
2023-03-06T20:09:35.670Z,99809.06
2023-03-06T20:12:08.128Z,99826.81
2023-03-06T20:14:37.276Z,99826.31
2023-03-06T20:17:06.986Z,99817.81
2023-03-06T20:19:38.077Z,99785.69
2023-03-06T20:22:07.312Z,99814.28
2023-03-06T20:24:36.252Z,99806.91
2023-03-06T20:27:05.707Z,99800.22
2023-03-06T20:29:34.759Z,99794.88
2023-03-06T20:32:03.922Z,99791.47
2023-03-06T20:34:33.539Z,99787.53
2023-03-06T20:37:03.801Z,99781.50
2023-03-06T20:39:33.176Z,99773.50
2023-03-06T20:42:02.795Z,99724.00
2023-03-06T20:44:31.947Z,99767.13
2023-03-06T20:47:01.201Z,99772.75
2023-03-06T20:49:30.154Z,99776.59
2023-03-06T20:51:59.394Z,99775.63
2023-03-06T20:54:29.847Z,99771.09
2023-03-06T20:56:58.981Z,99765.94
2023-03-06T20:59:28.038Z,99771.88
2023-03-06T21:01:59.853Z,99773.97
2023-03-06T21:04:32.015Z,99772.16
2023-03-06T21:07:01.159Z,99750.78
2023-03-06T21:09:32.817Z,99801.41
2023-03-06T21:12:01.836Z,99809.78
2023-03-06T21:14:30.801Z,99759.06
2023-03-06T21:17:01.334Z,99805.34
2023-03-06T21:19:32.674Z,99808.31
2023-03-06T21:22:01.769Z,99810.53
2023-03-06T21:24:32.492Z,99804.22
2023-03-06T21:27:01.632Z,99791.06
2023-03-06T21:29:30.934Z,99769.69
2023-03-06T21:32:00.064Z,99800.72
2023-03-06T21:34:29.040Z,99815.97
2023-03-06T21:36:58.621Z,99783.88
2023-03-06T21:39:27.548Z,99789.31
2023-03-06T21:41:58.146Z,99778.72
2023-03-06T21:44:27.251Z,99772.91
2023-03-06T21:46:56.680Z,99774.84
2023-03-06T21:49:26.346Z,99769.25
2023-03-06T21:51:55.759Z,99762.28
2023-03-06T21:54:26.983Z,99741.03
2023-03-06T21:56:57.635Z,99749.06
2023-03-06T21:59:26.627Z,99713.13
2023-03-06T22:01:56.079Z,99750.84
2023-03-06T22:04:25.384Z,99748.75
2023-03-06T22:06:54.833Z,99747.97
2023-03-06T22:09:24.360Z,99745.41
2023-03-06T22:11:53.938Z,99745.34
2023-03-06T22:14:24.785Z,99741.69
2023-03-06T22:16:54.362Z,99744.38
2023-03-06T22:19:24.204Z,99738.19
2023-03-06T22:21:53.225Z,99737.59
2023-03-06T22:24:22.739Z,99732.81
2023-03-06T22:26:52.425Z,99717.16
2023-03-06T22:29:22.031Z,99736.81
2023-03-06T22:31:53.169Z,99738.09
2023-03-06T22:34:22.983Z,99728.03
2023-03-06T22:36:52.609Z,99736.03
2023-03-06T22:39:22.398Z,99728.31
2023-03-06T22:41:52.544Z,99727.06
2023-03-06T22:44:21.908Z,99724.91
2023-03-06T22:46:53.605Z,99702.66
2023-03-06T22:49:23.213Z,99718.31
2023-03-06T22:51:52.776Z,99724.72
2023-03-06T22:54:22.184Z,99720.47
2023-03-06T22:56:51.891Z,99753.34
2023-03-06T22:59:21.307Z,99697.50
2023-03-06T23:01:50.744Z,99722.91
2023-03-06T23:04:21.430Z,99720.72
2023-03-06T23:06:51.149Z,99724.50
2023-03-06T23:09:22.554Z,99728.44
2023-03-06T23:12:11.753Z,99726.13
2023-03-06T23:14:59.558Z,99728.06
2023-03-06T23:17:47.592Z,99727.47
2023-03-06T23:20:36.619Z,99721.09
2023-03-06T23:23:26.980Z,99721.06
2023-03-06T23:26:00.829Z,99712.94
2023-03-06T23:28:30.707Z,99722.97
2023-03-06T23:31:00.280Z,99678.09
2023-03-06T23:33:29.842Z,99712.34
2023-03-06T23:36:06.017Z,99680.88
2023-03-06T23:38:35.452Z,99744.59
2023-03-06T23:41:05.701Z,99710.38
2023-03-06T23:43:35.012Z,99717.78
2023-03-06T23:46:05.058Z,99701.75
2023-03-06T23:48:35.660Z,99719.00
2023-03-06T23:51:08.782Z,99715.81
2023-03-06T23:53:38.498Z,99481.81
2023-03-06T23:56:08.937Z,99719.94
2023-03-06T23:58:38.306Z,99686.53
